Fayetteville Regional Grannis Field
KFAY : rendu visible

Aérodrome :











RETROUVEZ-NOUS SUR...

 
LOGIN :

S'inscrire | Disclaimer

   EN    FR    IT 

 









Légende :    VFR   VFR Marginal   IFR   IFR Intensif   IFR Très Intensif
Visi : 
Plafond : 
>= 8 km
>= 3000ft
5 à 8 km
1000 à 3000 ft
1500m à 5 km
500 à 1000 ft
800 à 1500m
200 à 500 ft
< 800m
< 200 ft
Symboles :   Orages  Brouillard  Fortes neiges  Fortes précipitations  Vent > 20 kt






- Altitude de l'aérodrome : 189 ft
- Code IATA : FAY


KFAY - Fayetteville Regional Grannis Field

DERNIER METAR :
  • 272253Z 00000KT 10SM OVC036 11/07 A2980 RMK AO2 RAE06B22E40 SLP088 P0000 T01110072

METARs EXPIRÉS :
  • 272153Z 23006KT 8SM -RA BKN039 OVC050 12/06 A2981 RMK AO2 RAB51 SLP088 P0000 T01220056
  • 272053Z 29005KT 10SM FEW030 SCT036 BKN100 13/06 A2979 RMK AO2 SLP084 T01280056 56020
  • 271953Z 26009KT 10SM OVC085 13/05 A2979 RMK AO2 SLP084 T01280050

TAF KFAY
Valide du 27 à 22h jusqu'au 28 à 18h UTC


272154Z 2722/2818 29006KT P6SM VCSH SCT030 BKN100
TEMPO 2722/2801 5SM -SHRA BR OVC030
FM280300 27004KT P6SM FEW035
FM280800 33005KT P6SM SKC



MET'MAP, la Météo Aéronautique d'un coup d'oeil ! - Copyright ORBIFLY Décembre 2007 - Disclaimer

ORBIFLY MET'MAP TEAM :

Programmation & Développement : Alexandra Zaïnal
Sur une idée originale de : Baudouin d'Aumeries
Assistance à la programmation : Marc-Olivier Méhu
Soutien technique & logistique : Manuel Goepfert

Contact : metmap@orbifly.com




SOURCES & CREDITS :

   NOAA       Earth
Advisory